Time;durP1;ratioP1;P1;durP2;ratioP2;P2;SDS_P1;SDS_P2;PMS_P1;PMS_P2;Temp;Humidity;BMP_temperature;BMP_pressure;BME280_temperature;BME280_humidity;BME280_pressure;Samples;Min_cycle;Max_cycle;Signal;HPM_P1;HPM_P2
2023/06/25 00:00:22;;;;;;;;;8.00;6.00;;;;;26.68;84.83;101527.44;5054764;28;45689;-76
2023/06/25 00:02:48;;;;;;;;;8.33;4.67;;;;;26.66;85.32;101523.91;5052314;28;73244;-75
2023/06/25 00:05:13;;;;;;;;;6.00;6.00;;;;;26.61;85.45;101510.56;5053214;28;45376;-76
2023/06/25 00:07:40;;;;;;;;;6.00;6.00;;;;;26.60;85.87;101511.53;5054902;28;45488;-75
2023/06/25 00:10:06;;;;;;;;;7.67;6.00;;;;;26.56;85.89;101510.78;5053676;28;45428;-75
2023/06/25 00:12:32;;;;;;;;;5.00;5.00;;;;;26.51;85.66;101507.41;5048419;28;46878;-75
2023/06/25 00:14:57;;;;;;;;;5.00;5.00;;;;;26.46;86.01;101509.44;5055101;28;45938;-76
2023/06/25 00:17:27;;;;;;;;;6.00;6.00;;;;;26.43;86.72;101506.00;5060325;28;46756;-76
2023/06/25 00:19:53;;;;;;;;;5.67;5.00;;;;;26.37;87.09;101499.00;5050714;28;45569;-75
2023/06/25 00:22:18;;;;;;;;;4.00;4.00;;;;;26.35;87.58;101496.34;5051498;28;47509;-74
2023/06/25 00:24:44;;;;;;;;;5.00;5.00;;;;;26.29;87.44;101485.78;5061526;28;70057;-75
2023/06/25 00:27:09;;;;;;;;;4.33;4.33;;;;;26.27;87.91;101487.69;5053849;28;45380;-75
2023/06/25 00:29:34;;;;;;;;;5.00;5.00;;;;;26.24;87.37;101484.22;5055663;28;63674;-75
2023/06/25 00:31:59;;;;;;;;;6.33;5.00;;;;;26.22;87.48;101486.13;5049824;28;68818;-76
2023/06/25 00:34:25;;;;;;;;;4.00;4.00;;;;;26.18;87.93;101485.38;5059185;28;66759;-77
2023/06/25 00:36:53;;;;;;;;;4.33;4.33;;;;;26.18;88.06;101487.19;5039330;28;60845;-75
2023/06/25 00:39:19;;;;;;;;;4.00;4.00;;;;;26.12;88.23;101485.63;5052635;28;45516;-75
2023/06/25 00:41:44;;;;;;;;;6.00;6.00;;;;;26.10;88.88;101480.31;5049392;28;46762;-75
2023/06/25 00:44:09;;;;;;;;;5.33;5.00;;;;;26.07;88.56;101476.84;5053349;28;45764;-74
2023/06/25 00:46:35;;;;;;;;;4.33;4.00;;;;;26.03;89.05;101473.38;5042512;28;59214;-75
2023/06/25 00:49:06;;;;;;;;;7.00;5.33;;;;;26.00;89.16;101472.66;5048112;28;57826;-76
2023/06/25 00:51:34;;;;;;;;;4.33;4.33;;;;;25.95;89.53;101474.66;5050693;28;47126;-75
2023/06/25 00:54:00;;;;;;;;;7.67;5.67;;;;;25.94;89.86;101481.00;5036479;28;45589;-75
2023/06/25 00:56:29;;;;;;;;;6.00;4.33;;;;;25.89;90.12;101472.19;5033475;28;45533;-77
2023/06/25 00:59:02;;;;;;;;;7.00;5.00;;;;;25.85;90.15;101463.34;5058227;28;45471;-75
2023/06/25 01:01:37;;;;;;;;;5.67;5.67;;;;;25.84;90.64;101461.59;5050151;28;46703;-76
2023/06/25 01:04:12;;;;;;;;;6.00;4.00;;;;;25.80;91.18;101458.13;5032608;28;45523;-76
2023/06/25 01:06:41;;;;;;;;;6.33;5.00;;;;;25.77;90.82;101460.06;5051854;28;45489;-75
2023/06/25 01:09:09;;;;;;;;;2.67;2.67;;;;;25.75;91.11;101451.16;5037951;28;45551;-76
2023/06/25 01:11:35;;;;;;;;;5.33;4.00;;;;;25.71;91.09;101458.47;5053216;28;46329;-75
2023/06/25 01:14:03;;;;;;;;;6.67;6.33;;;;;25.69;91.34;101445.97;5036382;28;45467;-75
2023/06/25 01:16:28;;;;;;;;;5.67;4.33;;;;;25.65;92.33;101452.47;5036789;28;45570;-75
2023/06/25 01:18:56;;;;;;;;;6.00;5.00;;;;;25.65;92.50;101465.97;5035108;28;46530;-75
2023/06/25 01:21:23;;;;;;;;;6.00;5.00;;;;;25.61;92.14;101466.09;5054762;28;47557;-76
2023/06/25 01:23:49;;;;;;;;;4.00;4.00;;;;;25.56;92.31;101461.81;5034757;28;45496;-76
2023/06/25 01:26:15;;;;;;;;;3.33;3.33;;;;;25.54;93.07;101456.50;5054511;28;45499;-76
2023/06/25 01:28:40;;;;;;;;;7.33;6.00;;;;;25.52;93.08;101452.09;5054630;28;61553;-76
2023/06/25 01:31:07;;;;;;;;;4.67;4.00;;;;;25.49;93.44;101450.38;5052879;28;69940;-75
2023/06/25 01:33:33;;;;;;;;;6.00;5.00;;;;;25.43;93.87;101449.75;5050325;28;45446;-76
2023/06/25 01:35:58;;;;;;;;;4.00;4.00;;;;;25.41;93.50;101447.13;5056985;28;45501;-76
2023/06/25 01:38:23;;;;;;;;;4.67;4.67;;;;;25.40;94.19;101447.16;5054398;28;45990;-75
2023/06/25 01:40:49;;;;;;;;;4.67;3.67;;;;;25.33;94.31;101441.16;5052936;28;71594;-75
2023/06/25 01:43:14;;;;;;;;;7.00;7.00;;;;;25.33;94.63;101447.44;5061062;28;57666;-75
2023/06/25 01:45:40;;;;;;;;;7.33;4.00;;;;;25.29;94.69;101442.19;5054700;28;45865;-76
2023/06/25 01:48:06;;;;;;;;;4.00;4.00;;;;;25.24;95.33;101441.50;5053453;28;45609;-75
2023/06/25 01:50:31;;;;;;;;;5.33;5.33;;;;;25.24;95.39;101449.63;5060009;28;71162;-75
2023/06/25 01:52:56;;;;;;;;;8.00;5.00;;;;;25.21;95.44;101444.34;5053283;28;69628;-75
2023/06/25 01:55:21;;;;;;;;;4.67;4.67;;;;;25.18;95.82;101434.53;5054216;28;63749;-75
2023/06/25 01:57:47;;;;;;;;;5.00;5.00;;;;;25.14;95.78;101427.50;5055156;28;58134;-76
2023/06/25 02:00:13;;;;;;;;;4.00;4.00;;;;;25.13;96.12;101431.13;5053219;28;69398;-77
2023/06/25 02:02:38;;;;;;;;;6.00;5.00;;;;;25.08;96.37;101431.31;5054189;28;45760;-76
2023/06/25 02:05:04;;;;;;;;;6.33;5.33;;;;;25.06;96.84;101425.09;5054166;28;65780;-77
2023/06/25 02:07:29;;;;;;;;;6.33;4.33;;;;;25.02;97.14;101415.31;5055373;28;45785;-76
2023/06/25 02:09:55;;;;;;;;;4.67;4.67;;;;;25.00;96.81;101419.91;5050867;28;54763;-76
2023/06/25 02:12:20;;;;;;;;;8.67;6.00;;;;;24.98;97.61;101419.09;5059324;28;45430;-76
2023/06/25 02:14:46;;;;;;;;;5.00;5.00;;;;;24.97;97.43;101422.72;5057645;28;63331;-76
2023/06/25 02:17:11;;;;;;;;;8.00;5.00;;;;;24.94;97.50;101413.88;5055958;28;45515;-76
2023/06/25 02:19:36;;;;;;;;;5.00;5.00;;;;;24.90;97.37;101412.22;5051038;28;65929;-75
2023/06/25 02:22:02;;;;;;;;;6.00;6.00;;;;;24.89;97.65;101413.16;5065255;28;68642;-76
2023/06/25 02:24:27;;;;;;;;;7.00;5.00;;;;;24.85;98.04;101406.13;5052707;28;46043;-76
2023/06/25 02:26:52;;;;;;;;;5.33;4.00;;;;;24.81;98.50;101398.13;5056518;28;45388;-76
2023/06/25 02:29:18;;;;;;;;;4.33;4.33;;;;;24.81;98.40;101399.94;5051569;28;66280;-76
2023/06/25 02:31:43;;;;;;;;;9.00;4.00;;;;;24.79;98.90;101399.13;5050715;28;66206;-75
2023/06/25 02:34:09;;;;;;;;;6.00;6.00;;;;;24.76;99.20;101402.81;5051647;28;45368;-75
2023/06/25 02:36:34;;;;;;;;;5.33;4.00;;;;;24.75;99.48;101402.88;5053405;28;45600;-75
2023/06/25 02:38:59;;;;;;;;;6.00;5.00;;;;;24.72;99.74;101395.81;5055821;28;46109;-77
2023/06/25 02:41:25;;;;;;;;;5.00;4.00;;;;;24.70;99.62;101394.09;5050465;28;63803;-75
2023/06/25 02:43:50;;;;;;;;;5.00;5.00;;;;;24.69;99.86;101392.34;5052597;28;57182;-74
2023/06/25 02:46:15;;;;;;;;;6.67;5.67;;;;;24.65;100.00;101385.28;5051746;28;63642;-75
2023/06/25 02:48:42;;;;;;;;;7.00;5.00;;;;;24.62;99.89;101386.28;5051114;28;61336;-75
2023/06/25 02:51:09;;;;;;;;;7.33;6.00;;;;;24.60;100.00;101388.16;5054787;28;45821;-75
2023/06/25 02:53:34;;;;;;;;;6.00;5.00;;;;;24.58;100.00;101389.16;5055083;28;45516;-75
2023/06/25 02:55:59;;;;;;;;;4.67;4.67;;;;;24.53;100.00;101392.91;5052576;28;53802;-76
2023/06/25 02:58:25;;;;;;;;;4.00;4.00;;;;;24.51;100.00;101396.63;5047663;28;66768;-76
2023/06/25 03:00:50;;;;;;;;;6.33;5.33;;;;;24.45;100.00;101394.13;5048945;28;67292;-75
2023/06/25 03:03:15;;;;;;;;;6.33;5.00;;;;;24.41;100.00;101388.00;5051926;28;48611;-75
2023/06/25 03:05:41;;;;;;;;;6.33;5.00;;;;;24.39;100.00;101389.84;5050063;28;63808;-76
2023/06/25 03:08:06;;;;;;;;;6.00;5.00;;;;;24.35;100.00;101385.53;5051102;28;54137;-76
2023/06/25 03:10:33;;;;;;;;;5.00;3.67;;;;;24.35;100.00;101390.00;5056463;28;45407;-76
2023/06/25 03:12:59;;;;;;;;;6.00;5.00;;;;;24.29;100.00;101386.59;5052007;28;45419;-74
2023/06/25 03:15:24;;;;;;;;;4.00;4.00;;;;;24.28;100.00;101390.22;5057272;28;56571;-75
2023/06/25 03:17:50;;;;;;;;;5.00;5.00;;;;;24.26;100.00;101378.59;5051747;28;64141;-75
2023/06/25 03:20:15;;;;;;;;;6.67;5.67;;;;;24.19;100.00;101371.69;5050598;28;45486;-75
2023/06/25 03:22:40;;;;;;;;;4.00;4.00;;;;;24.20;100.00;101378.84;5058583;28;45584;-75
2023/06/25 03:25:06;;;;;;;;;4.00;4.00;;;;;24.18;100.00;101379.81;5058713;28;55098;-75
2023/06/25 03:27:33;;;;;;;;;5.33;5.33;;;;;24.14;100.00;101375.50;5034111;28;45402;-74
2023/06/25 03:29:59;;;;;;;;;5.67;4.00;;;;;24.11;100.00;101378.28;5034604;28;45627;-76
2023/06/25 03:32:24;;;;;;;;;5.00;3.00;;;;;24.09;100.00;101380.19;5052180;28;45410;-76
2023/06/25 03:34:49;;;;;;;;;4.00;4.00;;;;;24.04;100.00;101378.53;5049208;28;62298;-75
2023/06/25 03:37:15;;;;;;;;;4.00;4.00;;;;;24.02;100.00;101377.72;5046916;28;68284;-75
2023/06/25 03:39:40;;;;;;;;;4.00;4.00;;;;;23.99;100.00;101369.72;5049265;28;45538;-74
2023/06/25 03:42:05;;;;;;;;;4.67;4.00;;;;;23.92;100.00;101376.28;5055233;28;62148;-75
2023/06/25 03:44:31;;;;;;;;;4.00;4.00;;;;;23.94;100.00;101385.19;5050009;28;48347;-75
2023/06/25 03:46:56;;;;;;;;;4.00;4.00;;;;;23.89;100.00;101379.06;5051779;28;46511;-76
2023/06/25 03:49:21;;;;;;;;;5.00;5.00;;;;;23.89;100.00;101381.75;5062349;28;66193;-75
2023/06/25 03:51:47;;;;;;;;;5.67;5.00;;;;;23.86;100.00;101372.88;5055934;28;59776;-75
2023/06/25 03:54:12;;;;;;;;;5.00;4.00;;;;;23.82;100.00;101368.56;5055021;28;57125;-76
2023/06/25 03:56:37;;;;;;;;;4.00;4.00;;;;;23.81;100.00;101369.47;5054796;28;56014;-76
2023/06/25 03:59:03;;;;;;;;;5.00;5.00;;;;;23.79;100.00;101370.41;5051812;28;69008;-75
2023/06/25 04:01:28;;;;;;;;;4.33;4.00;;;;;23.78;100.00;101376.75;5051667;28;63113;-76
2023/06/25 04:03:53;;;;;;;;;7.00;5.67;;;;;23.77;100.00;101372.28;5058865;28;45412;-75
2023/06/25 04:06:19;;;;;;;;;5.00;5.00;;;;;23.75;100.00;101378.66;5050946;28;68732;-76
2023/06/25 04:08:44;;;;;;;;;5.00;5.00;;;;;23.74;100.00;101371.50;5034430;28;45403;-75
2023/06/25 04:11:10;;;;;;;;;4.67;4.67;;;;;23.72;100.00;101365.31;5052789;28;61261;-75
2023/06/25 04:13:35;;;;;;;;;4.00;3.67;;;;;23.72;100.00;101371.56;5047060;28;63507;-75
2023/06/25 04:16:00;;;;;;;;;6.00;4.00;;;;;23.69;100.00;101370.78;5051665;28;65517;-75
2023/06/25 04:18:25;;;;;;;;;7.33;5.33;;;;;23.68;100.00;101367.22;5049426;28;51381;-75
2023/06/25 04:20:51;;;;;;;;;5.00;5.00;;;;;23.64;100.00;101362.84;5049786;28;63070;-76
2023/06/25 04:23:17;;;;;;;;;5.00;5.00;;;;;23.67;100.00;101370.84;5052234;28;45421;-75
2023/06/25 04:25:43;;;;;;;;;5.00;5.00;;;;;23.65;100.00;101369.13;5057273;28;49127;-75
2023/06/25 04:28:18;;;;;;;;;2.67;2.67;;;;;23.66;100.00;101366.41;5057984;28;46160;-76
2023/06/25 04:30:43;;;;;;;;;8.67;5.00;;;;;23.66;100.00;101371.78;5050347;28;45373;-75
2023/06/25 04:33:09;;;;;;;;;4.00;4.00;;;;;23.63;100.00;101363.78;5055156;28;57804;-76
2023/06/25 04:35:34;;;;;;;;;5.67;5.67;;;;;23.66;100.00;101371.78;5051796;28;47400;-76
2023/06/25 04:37:59;;;;;;;;;3.33;3.33;;;;;23.62;100.00;101367.41;5051268;28;66558;-75
2023/06/25 04:40:25;;;;;;;;;5.67;5.00;;;;;23.62;100.00;101359.31;5053691;28;45933;-75
2023/06/25 04:42:50;;;;;;;;;5.00;5.00;;;;;23.62;100.00;101367.41;5054195;28;45577;-75
2023/06/25 04:45:16;;;;;;;;;4.00;4.00;;;;;23.64;100.00;101372.75;5057165;28;56402;-76
2023/06/25 04:47:41;;;;;;;;;5.00;5.00;;;;;23.61;100.00;101362.94;5059235;28;45596;-75
2023/06/25 04:50:07;;;;;;;;;6.33;5.00;;;;;23.64;100.00;101361.97;5059208;28;60243;-76
2023/06/25 04:52:32;;;;;;;;;3.33;3.33;;;;;23.62;100.00;101367.41;5067779;28;45419;-75
2023/06/25 04:54:58;;;;;;;;;4.00;3.00;;;;;23.64;100.00;101367.38;5053154;28;47683;-76
2023/06/25 04:57:23;;;;;;;;;4.67;4.00;;;;;23.64;100.00;101360.16;5054798;28;45486;-75
2023/06/25 04:59:48;;;;;;;;;6.00;5.00;;;;;23.66;100.00;101369.09;5054067;28;62978;-75
2023/06/25 05:02:14;;;;;;;;;6.00;5.00;;;;;23.67;100.00;101372.66;5054423;28;45637;-76
2023/06/25 05:04:39;;;;;;;;;5.67;5.67;;;;;23.69;100.00;101370.78;5056252;28;64632;-75
2023/06/25 05:07:05;;;;;;;;;4.00;4.00;;;;;23.67;100.00;101373.56;5053795;28;67340;-75
2023/06/25 05:09:30;;;;;;;;;5.67;4.00;;;;;23.70;100.00;101375.25;5057293;28;46441;-76
2023/06/25 05:11:55;;;;;;;;;5.67;3.00;;;;;23.71;100.00;101375.22;5054335;28;57563;-76
2023/06/25 05:14:21;;;;;;;;;5.33;3.67;;;;;23.73;100.00;101383.25;5053425;28;63611;-76
2023/06/25 05:16:46;;;;;;;;;5.00;4.67;;;;;23.71;100.00;101372.53;5059714;28;69181;-76
2023/06/25 05:19:11;;;;;;;;;7.00;4.00;;;;;23.72;100.00;101374.28;5052478;28;46015;-75
2023/06/25 05:21:37;;;;;;;;;6.00;4.33;;;;;23.74;100.00;101368.81;5051956;28;60769;-76
2023/06/25 05:24:05;;;;;;;;;4.00;3.00;;;;;23.77;100.00;101379.50;5055206;28;65008;-75
2023/06/25 05:26:31;;;;;;;;;6.33;5.00;;;;;23.78;100.00;101375.88;5053322;28;45511;-75
2023/06/25 05:28:57;;;;;;;;;7.67;4.67;;;;;23.80;100.00;101371.28;5052995;28;61047;-75
2023/06/25 05:31:23;;;;;;;;;8.00;5.00;;;;;23.83;100.00;101373.03;5054331;28;45810;-76
2023/06/25 05:33:48;;;;;;;;;2.33;2.33;;;;;23.85;100.00;101379.22;5053709;28;46492;-75
2023/06/25 05:36:14;;;;;;;;;3.00;3.00;;;;;23.86;100.00;101368.38;5049911;28;63926;-75
2023/06/25 05:38:39;;;;;;;;;5.00;4.33;;;;;23.89;100.00;101370.97;5057105;28;45509;-78
2023/06/25 05:41:05;;;;;;;;;5.00;5.00;;;;;23.91;100.00;101374.47;5053511;28;45629;-75
2023/06/25 05:43:30;;;;;;;;;4.00;4.00;;;;;23.93;100.00;101367.25;5059242;28;46230;-76
2023/06/25 05:45:56;;;;;;;;;4.33;4.33;;;;;23.94;100.00;101371.69;5052386;28;45360;-76
2023/06/25 05:48:21;;;;;;;;;7.00;5.00;;;;;23.96;100.00;101369.81;5035650;28;63423;-75
2023/06/25 05:50:46;;;;;;;;;6.00;5.00;;;;;23.97;100.00;101377.00;5057165;28;58504;-75
2023/06/25 05:53:11;;;;;;;;;7.33;6.00;;;;;24.01;100.00;101378.63;5053154;28;72525;-75
2023/06/25 05:55:37;;;;;;;;;7.00;5.67;;;;;24.04;100.00;101380.34;5053325;28;66977;-74
2023/06/25 05:58:02;;;;;;;;;8.00;6.00;;;;;24.07;100.00;101374.81;5065357;28;45423;-73
2023/06/25 06:00:27;;;;;;;;;5.00;5.00;;;;;24.08;100.00;101376.59;5052462;28;45522;-75
2023/06/25 06:02:53;;;;;;;;;5.00;5.00;;;;;24.10;100.00;101381.94;5053199;28;70388;-76
2023/06/25 06:05:18;;;;;;;;;5.00;5.00;;;;;24.14;100.00;101378.19;5058917;28;66214;-75
2023/06/25 06:07:43;;;;;;;;;7.00;4.67;;;;;24.16;100.00;101374.47;5050564;28;45629;-75
2023/06/25 06:10:10;;;;;;;;;7.00;5.67;;;;;24.18;100.00;101377.13;5052538;28;59938;-78
2023/06/25 06:12:35;;;;;;;;;6.00;4.67;;;;;24.22;100.00;101374.25;5037430;28;47035;-76
2023/06/25 06:15:00;;;;;;;;;5.00;5.00;;;;;24.24;100.00;101380.50;5058439;28;68137;-75
2023/06/25 06:17:26;;;;;;;;;6.00;4.33;;;;;24.26;100.00;101367.81;5052494;28;65571;-76
2023/06/25 06:19:51;;;;;;;;;6.00;5.00;;;;;24.28;100.00;101362.34;5154058;22;61778;-76
2023/06/25 06:22:17;;;;;;;;;3.67;3.67;;;;;24.34;100.00;101370.22;5070980;28;46074;-75
2023/06/25 06:24:42;;;;;;;;;8.00;5.00;;;;;24.34;100.00;101363.94;5071983;28;45491;-77
2023/06/25 06:27:08;;;;;;;;;5.33;5.00;;;;;24.38;100.00;101357.53;5070119;28;45962;-76
2023/06/25 06:29:33;;;;;;;;;4.33;4.33;;;;;24.43;100.00;101360.94;5068442;28;45467;-75
2023/06/25 06:31:59;;;;;;;;;7.00;6.00;;;;;24.47;100.00;101354.47;5068182;28;59481;-76
2023/06/25 06:34:24;;;;;;;;;7.00;6.00;;;;;24.49;100.00;101358.88;5071482;28;66689;-76
2023/06/25 06:36:49;;;;;;;;;7.67;6.33;;;;;24.51;100.00;101356.13;5072492;28;65348;-76
2023/06/25 06:39:17;;;;;;;;;5.00;5.00;;;;;24.55;100.00;101344.25;5070981;28;64527;-76
2023/06/25 06:41:42;;;;;;;;;5.67;5.00;;;;;24.59;100.00;101345.03;5072838;28;47388;-76
2023/06/25 06:44:15;;;;;;;;;10.67;8.00;;;;;24.65;100.00;101352.88;5070129;28;45480;-76
2023/06/25 06:46:41;;;;;;;;;7.67;5.33;;;;;24.67;100.00;101356.41;5072806;28;45456;-76
2023/06/25 06:49:07;;;;;;;;;6.00;6.00;;;;;24.69;100.00;101350.00;5072062;28;45635;-75
2023/06/25 06:51:32;;;;;;;;;7.00;7.00;;;;;24.74;100.00;101341.72;5069103;28;46492;-76
2023/06/25 06:53:58;;;;;;;;;5.00;5.00;;;;;24.80;100.00;101360.38;5068077;28;65553;-76
2023/06/25 06:56:23;;;;;;;;;6.00;6.00;;;;;24.85;100.00;101347.56;5068966;28;62631;-76
2023/06/25 06:58:48;;;;;;;;;7.67;7.67;;;;;24.89;100.00;101343.81;5071883;28;63284;-75
2023/06/25 07:01:14;;;;;;;;;8.00;6.00;;;;;24.92;100.00;101354.47;5071438;28;61649;-76
2023/06/25 07:03:39;;;;;;;;;8.33;7.00;;;;;24.98;100.00;101354.25;5071992;28;70027;-77
2023/06/25 07:06:05;;;;;;;;;8.00;8.00;;;;;25.04;100.00;101345.00;5070273;28;54127;-76
2023/06/25 07:08:30;;;;;;;;;6.33;6.33;;;;;25.10;100.00;101343.91;5068115;28;62787;-77
2023/06/25 07:10:55;;;;;;;;;9.67;8.33;;;;;25.13;100.00;101338.38;5071109;28;70976;-76
2023/06/25 07:13:21;;;;;;;;;7.00;7.00;;;;;25.16;100.00;101346.34;5071838;28;45503;-75
2023/06/25 07:15:46;;;;;;;;;9.00;7.67;;;;;25.22;100.00;101341.56;5068002;28;57506;-77
2023/06/25 07:18:11;;;;;;;;;10.00;7.00;;;;;25.24;100.00;101339.66;5065618;28;60503;-76
2023/06/25 07:20:37;;;;;;;;;6.00;6.00;;;;;25.31;100.00;101343.03;5051141;27;67236;-76
2023/06/25 07:23:02;;;;;;;;;8.00;6.00;;;;;25.37;100.00;101342.75;5071552;27;54043;-77
2023/06/25 07:25:27;;;;;;;;;8.67;7.67;;;;;25.39;100.00;101340.84;5069562;28;45469;-75
2023/06/25 07:27:53;;;;;;;;;5.00;5.00;;;;;25.45;100.00;101343.28;5068801;27;49502;-75
2023/06/25 07:30:18;;;;;;;;;8.00;8.00;;;;;25.50;100.00;101343.97;5068322;27;71340;-76
2023/06/25 07:32:43;;;;;;;;;6.00;6.00;;;;;25.55;100.00;101330.25;5070163;27;45728;-75
2023/06/25 07:35:09;;;;;;;;;8.00;8.00;;;;;25.64;100.00;101343.38;5071476;27;65327;-76
2023/06/25 07:37:34;;;;;;;;;7.00;7.00;;;;;25.68;100.00;101336.03;5066493;27;50058;-77
2023/06/25 07:40:00;;;;;;;;;8.67;7.33;;;;;25.73;100.00;101334.88;5070400;28;46466;-77
2023/06/25 07:42:25;;;;;;;;;7.67;7.67;;;;;25.77;100.00;101325.69;5068202;28;67568;-77
2023/06/25 07:44:50;;;;;;;;;8.67;8.67;;;;;25.81;100.00;101329.16;5069802;27;64174;-76
2023/06/25 07:47:16;;;;;;;;;9.33;6.00;;;;;25.86;100.00;101332.53;5067506;28;45799;-76
2023/06/25 07:49:41;;;;;;;;;8.67;8.67;;;;;25.89;100.00;101323.38;5070144;28;70256;-77
2023/06/25 07:52:06;;;;;;;;;6.00;6.00;;;;;25.94;100.00;101321.34;5071186;28;45438;-77
2023/06/25 07:54:32;;;;;;;;;8.33;8.33;;;;;26.00;100.00;101324.69;5071447;28;47001;-76
2023/06/25 07:56:57;;;;;;;;;12.67;10.00;;;;;26.02;100.00;101322.78;5069299;28;45525;-76
2023/06/25 07:59:22;;;;;;;;;8.00;8.00;;;;;26.08;100.00;101325.19;5066575;28;70891;-75
2023/06/25 08:01:48;;;;;;;;;8.00;8.00;;;;;26.11;100.00;101325.06;5070779;28;45525;-76
2023/06/25 08:04:13;;;;;;;;;8.33;8.33;;;;;26.15;100.00;101314.94;5068500;28;64091;-76
2023/06/25 08:06:38;;;;;;;;;10.00;8.67;;;;;26.23;100.00;101320.03;5071622;27;45546;-75
2023/06/25 08:09:04;;;;;;;;;7.33;7.33;;;;;26.28;100.00;101326.13;5069849;28;64642;-76
2023/06/25 08:11:30;;;;;;;;;9.33;9.33;;;;;26.31;100.00;101328.66;5070530;28;45690;-76
2023/06/25 08:13:55;;;;;;;;;8.33;7.67;;;;;26.31;100.00;101315.13;5070099;28;59776;-75
2023/06/25 08:16:20;;;;;;;;;7.33;7.33;;;;;26.33;100.00;101318.66;5069380;28;48582;-75
2023/06/25 08:18:45;;;;;;;;;10.67;10.67;;;;;26.35;100.00;101314.03;5073953;28;67189;-75
2023/06/25 08:21:11;;;;;;;;;14.00;10.67;;;;;26.37;100.00;101304.03;5074020;28;46198;-75
2023/06/25 08:23:36;;;;;;;;;9.00;9.00;;;;;26.40;99.97;101303.88;5075446;28;45508;-75
2023/06/25 08:26:02;;;;;;;;;9.00;9.00;;;;;26.44;99.95;101302.81;5079026;27;48361;-75
2023/06/25 08:28:28;;;;;;;;;9.00;9.00;;;;;26.44;98.97;101308.22;5071707;28;47182;-75
2023/06/25 08:30:53;;;;;;;;;8.33;8.33;;;;;26.47;99.81;101305.34;5070737;28;45533;-75
2023/06/25 08:33:18;;;;;;;;;7.00;7.00;;;;;26.50;100.00;101307.94;5074009;28;48957;-75
2023/06/25 08:35:44;;;;;;;;;7.67;7.67;;;;;26.53;100.00;101298.78;5072570;28;57015;-78
2023/06/25 08:38:10;;;;;;;;;9.33;9.33;;;;;26.53;99.46;101296.97;5072484;28;46717;-78
2023/06/25 08:40:36;;;;;;;;;7.00;7.00;;;;;26.59;100.00;101295.78;5073608;28;45745;-78
2023/06/25 08:43:02;;;;;;;;;9.33;6.33;;;;;26.66;100.00;101309.91;5072661;28;45418;-77
2023/06/25 08:45:28;;;;;;;;;8.00;8.00;;;;;26.70;100.00;101292.56;5053896;28;45709;-78
2023/06/25 08:47:55;;;;;;;;;8.00;6.33;;;;;26.71;100.00;101284.34;5066787;28;46543;-78
2023/06/25 08:50:20;;;;;;;;;8.33;7.00;;;;;26.76;100.00;101285.00;5070812;28;45543;-76
2023/06/25 08:52:47;;;;;;;;;8.33;8.33;;;;;26.78;99.96;101285.78;5074566;28;45915;-75
2023/06/25 08:55:12;;;;;;;;;10.00;8.00;;;;;26.83;100.00;101283.72;5074134;28;45557;-76
2023/06/25 08:57:38;;;;;;;;;7.67;7.67;;;;;26.88;98.58;101276.25;5050187;28;71398;-78
2023/06/25 09:00:05;;;;;;;;;9.00;9.00;;;;;26.92;97.93;101279.69;5042138;28;45461;-76
2023/06/25 09:02:31;;;;;;;;;9.00;9.00;;;;;27.00;98.49;101288.31;5068635;28;45486;-77
2023/06/25 09:05:07;;;;;;;;;10.67;9.67;;;;;27.04;97.78;101279.06;5070931;28;60628;-77
2023/06/25 09:07:34;;;;;;;;;8.33;7.00;;;;;27.09;97.98;101279.75;5068168;28;47462;-76
2023/06/25 09:09:59;;;;;;;;;8.00;7.33;;;;;27.13;99.84;101270.50;5074037;27;46043;-78
2023/06/25 09:12:25;;;;;;;;;9.67;8.67;;;;;27.17;98.31;101273.94;5067304;27;45522;-78
2023/06/25 09:14:51;;;;;;;;;11.00;11.00;;;;;27.24;95.27;101269.09;5068751;28;45513;-78
2023/06/25 09:17:22;;;;;;;;;9.00;9.00;;;;;27.31;95.82;101271.38;5044989;28;48608;-75
2023/06/25 09:19:48;;;;;;;;;8.67;8.33;;;;;27.37;93.43;101262.06;5047390;27;45772;-77
2023/06/25 09:22:13;;;;;;;;;9.67;8.67;;;;;27.44;92.05;101260.78;5069394;28;47186;-79
2023/06/25 09:24:43;;;;;;;;;8.33;8.33;;;;;27.53;90.82;101265.72;5075341;27;60675;-77
2023/06/25 09:27:10;;;;;;;;;10.00;8.33;;;;;27.62;90.03;101265.22;5069322;28;46336;-77
2023/06/25 09:29:36;;;;;;;;;9.00;9.00;;;;;27.71;88.61;101266.63;5062188;27;45556;-77
2023/06/25 09:32:09;;;;;;;;;12.00;11.33;;;;;27.76;88.52;101266.38;5059953;27;47194;-78
2023/06/25 09:34:35;;;;;;;;;29.75;28.50;;;;;27.83;86.20;101251.50;5066683;28;45800;-78
2023/06/25 09:37:04;;;;;;;;;12.67;11.33;;;;;27.94;85.13;101259.94;5068986;27;46160;-77
2023/06/25 09:39:30;;;;;;;;;15.00;15.00;;;;;28.01;84.99;101261.34;5068517;27;45521;-78
2023/06/25 09:41:55;;;;;;;;;18.67;18.67;;;;;28.09;83.93;101255.50;5069982;27;46737;-77
2023/06/25 09:44:21;;;;;;;;;33.00;30.00;;;;;28.19;82.28;101252.19;5072956;27;45611;-77
2023/06/25 09:46:47;;;;;;;;;13.00;12.00;;;;;28.26;83.03;101251.84;5074181;27;46516;-77
2023/06/25 09:49:14;;;;;;;;;17.00;17.00;;;;;28.32;81.85;101252.38;5072112;27;45430;-77
2023/06/25 09:51:47;;;;;;;;;10.33;10.33;;;;;28.37;81.87;101242.16;5072301;27;45522;-77
2023/06/25 09:54:15;;;;;;;;;20.67;19.00;;;;;28.46;82.05;101243.47;5056541;28;45529;-77
2023/06/25 09:56:43;;;;;;;;;12.00;12.00;;;;;28.49;81.90;101240.56;5053349;28;46238;-77
2023/06/25 09:59:09;;;;;;;;;21.00;19.67;;;;;28.57;83.23;101243.72;5051132;28;45945;-77
2023/06/25 10:01:35;;;;;;;;;9.33;9.00;;;;;28.63;81.05;101242.50;5057413;28;45349;-78
2023/06/25 10:04:01;;;;;;;;;12.00;12.00;;;;;28.70;80.36;101238.44;5055336;28;45541;-77
2023/06/25 10:06:27;;;;;;;;;13.00;11.00;;;;;28.76;80.43;101235.38;5049746;27;47690;-79
2023/06/25 10:08:54;;;;;;;;;20.00;20.00;;;;;28.77;80.62;101228.13;5055391;28;45906;-81
2023/06/25 10:11:19;;;;;;;;;15.67;14.33;;;;;28.81;79.84;101224.22;5069431;27;45981;-80
2023/06/25 10:13:45;;;;;;;;;52.00;43.25;;;;;28.88;78.55;101229.22;5074105;27;45473;-81
2023/06/25 10:16:17;;;;;;;;;54.25;43.25;;;;;28.91;79.39;101226.31;5054648;28;46432;-80
2023/06/25 10:18:42;;;;;;;;;12.67;10.67;;;;;28.98;76.33;101232.31;5069163;27;45658;-80
2023/06/25 10:21:08;;;;;;;;;24.00;19.33;;;;;29.00;77.47;101224.94;5073610;27;45623;-80
2023/06/25 10:23:36;;;;;;;;;19.33;19.33;;;;;29.04;77.03;101222.91;5074679;27;52229;-79
2023/06/25 10:26:03;;;;;;;;;13.33;11.67;;;;;29.07;77.97;101215.44;5072796;28;46379;-79
2023/06/25 10:28:34;;;;;;;;;19.00;19.00;;;;;29.13;77.14;101227.78;5076227;27;45408;-78
2023/06/25 10:30:59;;;;;;;;;13.00;11.33;;;;;29.17;75.94;101222.06;5076022;27;45516;-78
2023/06/25 10:33:29;;;;;;;;;22.00;21.00;;;;;29.25;74.39;101224.34;5055832;28;45561;-79
2023/06/25 10:35:56;;;;;;;;;26.67;25.00;;;;;29.33;74.23;101229.31;5051712;27;47146;-79
2023/06/25 10:38:23;;;;;;;;;15.67;12.33;;;;;29.39;72.73;101226.19;5073708;28;45550;-79
2023/06/25 10:40:49;;;;;;;;;9.33;8.67;;;;;29.42;71.34;101217.84;5075482;28;45455;-79
2023/06/25 10:43:18;;;;;;;;;26.67;22.67;;;;;29.46;71.80;101209.41;5072799;27;45499;-78
2023/06/25 10:45:54;;;;;;;;;14.00;13.00;;;;;29.50;73.08;101212.81;5071886;27;47866;-79
2023/06/25 10:48:21;;;;;;;;;20.67;17.33;;;;;29.57;71.80;101214.22;5066934;27;45504;-79
2023/06/25 10:50:47;;;;;;;;;21.33;20.00;;;;;29.62;70.41;101208.50;5075057;27;45478;-78
2023/06/25 10:53:15;;;;;;;;;12.33;10.33;;;;;29.69;70.29;101196.25;5072196;27;45387;-79
2023/06/25 10:55:44;;;;;;;;;9.33;9.33;;;;;29.75;68.62;101198.56;5072674;28;46405;-78
2023/06/25 10:58:13;;;;;;;;;9.67;9.67;;;;;29.84;69.13;101191.69;5051887;27;45477;-80
2023/06/25 11:00:39;;;;;;;;;29.00;26.67;;;;;29.92;68.43;101197.50;5054989;28;45350;-78
2023/06/25 11:03:04;;;;;;;;;54.75;44.00;;;;;29.96;66.96;101199.06;5075745;27;63430;-77
2023/06/25 11:05:41;;;;;;;;;73.75;59.00;;;;;30.02;65.27;101187.75;5071958;28;67132;-78
2023/06/25 11:08:09;;;;;;;;;11.33;10.67;;;;;30.08;63.87;101187.34;5071967;27;45447;-80
2023/06/25 11:10:37;;;;;;;;;8.00;8.00;;;;;30.11;63.46;101178.13;5076557;28;45475;-79
2023/06/25 11:13:02;;;;;;;;;16.33;15.00;;;;;30.16;64.77;101193.22;5075250;27;45618;-76